sensor_id;sensor_type;location;lat;lon;timestamp;noise_LAeq;noise_LA_min;noise_LA_max;noise_LA01;noise_LA95
64996;Laerm;51545;51.568;6.998;2024-01-06T00:00:08;34.99;34.08;37.44;;
64996;Laerm;51545;51.568;6.998;2024-01-06T00:02:34;35.03;34.06;37.30;;
64996;Laerm;51545;51.568;6.998;2024-01-06T00:05:00;34.87;33.91;37.12;;
64996;Laerm;51545;51.568;6.998;2024-01-06T00:07:26;34.88;33.92;37.38;;
64996;Laerm;51545;51.568;6.998;2024-01-06T00:09:52;34.92;33.87;37.50;;
64996;Laerm;51545;51.568;6.998;2024-01-06T00:12:19;35.01;33.95;37.61;;
64996;Laerm;51545;51.568;6.998;2024-01-06T00:14:45;35.02;33.98;36.77;;
64996;Laerm;51545;51.568;6.998;2024-01-06T00:17:11;34.93;33.91;36.67;;
64996;Laerm;51545;51.568;6.998;2024-01-06T00:19:37;34.82;33.82;36.78;;
64996;Laerm;51545;51.568;6.998;2024-01-06T00:22:04;34.80;33.72;36.97;;
64996;Laerm;51545;51.568;6.998;2024-01-06T00:24:29;34.82;33.74;36.12;;
64996;Laerm;51545;51.568;6.998;2024-01-06T00:26:55;34.96;33.71;37.14;;
64996;Laerm;51545;51.568;6.998;2024-01-06T00:29:21;35.15;34.06;38.15;;
64996;Laerm;51545;51.568;6.998;2024-01-06T00:31:47;35.02;33.73;36.10;;
64996;Laerm;51545;51.568;6.998;2024-01-06T00:34:13;35.04;34.07;37.49;;
64996;Laerm;51545;51.568;6.998;2024-01-06T00:36:39;35.38;34.09;36.60;;
64996;Laerm;51545;51.568;6.998;2024-01-06T00:39:05;35.16;33.97;37.36;;
64996;Laerm;51545;51.568;6.998;2024-01-06T00:41:31;35.14;33.97;36.14;;
64996;Laerm;51545;51.568;6.998;2024-01-06T00:43:57;35.24;34.06;37.52;;
64996;Laerm;51545;51.568;6.998;2024-01-06T00:46:22;35.15;34.01;36.54;;
64996;Laerm;51545;51.568;6.998;2024-01-06T00:48:48;35.20;34.26;36.46;;
64996;Laerm;51545;51.568;6.998;2024-01-06T00:51:14;35.07;34.05;37.02;;
64996;Laerm;51545;51.568;6.998;2024-01-06T00:53:40;35.00;34.07;36.86;;
64996;Laerm;51545;51.568;6.998;2024-01-06T00:56:06;35.07;34.10;36.55;;
64996;Laerm;51545;51.568;6.998;2024-01-06T00:58:32;35.02;34.07;36.72;;
64996;Laerm;51545;51.568;6.998;2024-01-06T01:00:58;35.05;34.07;36.25;;
64996;Laerm;51545;51.568;6.998;2024-01-06T01:03:24;35.13;33.81;36.80;;
64996;Laerm;51545;51.568;6.998;2024-01-06T01:05:50;34.88;33.86;37.03;;
64996;Laerm;51545;51.568;6.998;2024-01-06T01:08:15;34.89;33.95;37.57;;
64996;Laerm;51545;51.568;6.998;2024-01-06T01:10:41;34.91;33.80;38.11;;
64996;Laerm;51545;51.568;6.998;2024-01-06T01:13:07;34.66;33.35;35.97;;
64996;Laerm;51545;51.568;6.998;2024-01-06T01:15:35;34.56;33.69;35.83;;
64996;Laerm;51545;51.568;6.998;2024-01-06T01:18:00;34.55;33.65;36.40;;
64996;Laerm;51545;51.568;6.998;2024-01-06T01:20:26;34.55;33.54;35.63;;
64996;Laerm;51545;51.568;6.998;2024-01-06T01:22:52;34.59;33.57;36.73;;
64996;Laerm;51545;51.568;6.998;2024-01-06T01:25:18;34.63;33.75;35.47;;
64996;Laerm;51545;51.568;6.998;2024-01-06T01:27:44;34.60;33.32;36.28;;
64996;Laerm;51545;51.568;6.998;2024-01-06T01:30:10;34.60;33.65;36.53;;
64996;Laerm;51545;51.568;6.998;2024-01-06T01:32:37;34.55;33.64;35.53;;
64996;Laerm;51545;51.568;6.998;2024-01-06T01:35:03;34.60;33.66;37.27;;
64996;Laerm;51545;51.568;6.998;2024-01-06T01:37:29;34.69;33.76;37.46;;
64996;Laerm;51545;51.568;6.998;2024-01-06T01:39:55;34.64;33.66;36.13;;
64996;Laerm;51545;51.568;6.998;2024-01-06T01:42:21;34.57;33.62;35.75;;
64996;Laerm;51545;51.568;6.998;2024-01-06T01:44:47;34.40;33.52;37.03;;
64996;Laerm;51545;51.568;6.998;2024-01-06T01:47:15;34.49;33.53;36.55;;
64996;Laerm;51545;51.568;6.998;2024-01-06T01:49:46;34.54;33.45;35.77;;
64996;Laerm;51545;51.568;6.998;2024-01-06T01:52:14;34.53;33.52;37.13;;
64996;Laerm;51545;51.568;6.998;2024-01-06T01:54:41;34.53;33.40;36.15;;
64996;Laerm;51545;51.568;6.998;2024-01-06T01:57:07;34.57;33.59;36.90;;
64996;Laerm;51545;51.568;6.998;2024-01-06T01:59:33;34.55;33.61;37.09;;
64996;Laerm;51545;51.568;6.998;2024-01-06T02:02:00;34.53;33.63;37.09;;
64996;Laerm;51545;51.568;6.998;2024-01-06T02:04:27;34.61;33.66;37.37;;
64996;Laerm;51545;51.568;6.998;2024-01-06T02:06:54;34.56;33.58;37.62;;
64996;Laerm;51545;51.568;6.998;2024-01-06T02:09:23;34.53;33.44;37.69;;
64996;Laerm;51545;51.568;6.998;2024-01-06T02:11:53;34.53;33.53;36.81;;
64996;Laerm;51545;51.568;6.998;2024-01-06T02:14:18;34.53;33.56;36.76;;
64996;Laerm;51545;51.568;6.998;2024-01-06T02:16:44;34.55;33.37;37.25;;
64996;Laerm;51545;51.568;6.998;2024-01-06T02:19:11;34.57;33.56;37.08;;
64996;Laerm;51545;51.568;6.998;2024-01-06T02:21:42;34.62;33.61;37.23;;
64996;Laerm;51545;51.568;6.998;2024-01-06T02:24:09;34.57;33.58;36.62;;
64996;Laerm;51545;51.568;6.998;2024-01-06T02:26:35;34.58;33.69;37.43;;
64996;Laerm;51545;51.568;6.998;2024-01-06T02:29:01;34.57;33.67;36.88;;
64996;Laerm;51545;51.568;6.998;2024-01-06T02:31:27;34.54;33.59;36.78;;
64996;Laerm;51545;51.568;6.998;2024-01-06T02:33:53;34.54;33.53;36.74;;
64996;Laerm;51545;51.568;6.998;2024-01-06T02:36:19;34.53;33.67;37.24;;
64996;Laerm;51545;51.568;6.998;2024-01-06T02:38:45;34.53;33.53;36.32;;
64996;Laerm;51545;51.568;6.998;2024-01-06T02:41:11;34.50;33.61;36.89;;
64996;Laerm;51545;51.568;6.998;2024-01-06T02:43:37;34.54;33.66;37.00;;
64996;Laerm;51545;51.568;6.998;2024-01-06T02:46:03;34.56;33.52;36.46;;
64996;Laerm;51545;51.568;6.998;2024-01-06T02:48:30;34.50;33.46;36.51;;
64996;Laerm;51545;51.568;6.998;2024-01-06T02:50:56;34.49;33.48;37.01;;
64996;Laerm;51545;51.568;6.998;2024-01-06T02:53:22;34.41;33.48;35.45;;
64996;Laerm;51545;51.568;6.998;2024-01-06T02:55:48;34.41;33.58;36.89;;
64996;Laerm;51545;51.568;6.998;2024-01-06T02:58:14;34.54;33.60;36.56;;
64996;Laerm;51545;51.568;6.998;2024-01-06T03:00:40;34.55;33.51;35.49;;
64996;Laerm;51545;51.568;6.998;2024-01-06T03:03:06;34.54;33.42;36.78;;
64996;Laerm;51545;51.568;6.998;2024-01-06T03:05:32;34.56;33.64;35.78;;
64996;Laerm;51545;51.568;6.998;2024-01-06T03:07:58;34.60;33.70;36.24;;
64996;Laerm;51545;51.568;6.998;2024-01-06T03:10:24;34.40;33.46;37.10;;
64996;Laerm;51545;51.568;6.998;2024-01-06T03:12:50;34.43;33.41;35.89;;
64996;Laerm;51545;51.568;6.998;2024-01-06T03:15:16;34.65;33.57;35.55;;
64996;Laerm;51545;51.568;6.998;2024-01-06T03:17:42;34.63;33.40;36.12;;
64996;Laerm;51545;51.568;6.998;2024-01-06T03:20:09;34.88;33.69;36.25;;
64996;Laerm;51545;51.568;6.998;2024-01-06T03:22:35;35.08;33.97;37.65;;
64996;Laerm;51545;51.568;6.998;2024-01-06T03:25:03;34.84;33.84;36.07;;
64996;Laerm;51545;51.568;6.998;2024-01-06T03:27:29;34.83;33.74;37.22;;
64996;Laerm;51545;51.568;6.998;2024-01-06T03:29:54;34.75;33.46;37.73;;
64996;Laerm;51545;51.568;6.998;2024-01-06T03:32:21;34.82;33.81;37.06;;
64996;Laerm;51545;51.568;6.998;2024-01-06T03:34:47;35.08;33.52;39.13;;
64996;Laerm;51545;51.568;6.998;2024-01-06T03:37:13;35.47;33.94;39.48;;
64996;Laerm;51545;51.568;6.998;2024-01-06T03:39:40;35.01;33.89;37.94;;
64996;Laerm;51545;51.568;6.998;2024-01-06T03:42:06;35.01;33.93;38.42;;
64996;Laerm;51545;51.568;6.998;2024-01-06T03:44:33;34.84;33.69;37.66;;
64996;Laerm;51545;51.568;6.998;2024-01-06T03:46:59;34.79;33.73;37.08;;
64996;Laerm;51545;51.568;6.998;2024-01-06T03:49:25;34.53;33.50;36.64;;
64996;Laerm;51545;51.568;6.998;2024-01-06T03:51:51;34.55;33.45;36.72;;
64996;Laerm;51545;51.568;6.998;2024-01-06T03:54:17;34.57;33.41;38.09;;
64996;Laerm;51545;51.568;6.998;2024-01-06T03:56:43;34.43;33.55;36.81;;
64996;Laerm;51545;51.568;6.998;2024-01-06T03:59:09;34.53;33.35;36.86;;
64996;Laerm;51545;51.568;6.998;2024-01-06T04:01:36;34.50;33.16;36.28;;
64996;Laerm;51545;51.568;6.998;2024-01-06T04:04:02;34.46;33.46;36.69;;
64996;Laerm;51545;51.568;6.998;2024-01-06T04:06:29;34.43;33.43;36.49;;
64996;Laerm;51545;51.568;6.998;2024-01-06T04:08:57;34.41;33.44;35.79;;
64996;Laerm;51545;51.568;6.998;2024-01-06T04:11:23;34.36;33.30;35.93;;
64996;Laerm;51545;51.568;6.998;2024-01-06T04:13:49;34.31;33.25;36.52;;
64996;Laerm;51545;51.568;6.998;2024-01-06T04:16:15;34.28;33.24;36.34;;
64996;Laerm;51545;51.568;6.998;2024-01-06T04:18:41;34.24;33.30;35.26;;
64996;Laerm;51545;51.568;6.998;2024-01-06T04:21:08;34.29;33.32;35.40;;
64996;Laerm;51545;51.568;6.998;2024-01-06T04:23:34;34.30;33.39;36.01;;
64996;Laerm;51545;51.568;6.998;2024-01-06T04:26:01;34.31;33.37;36.24;;
64996;Laerm;51545;51.568;6.998;2024-01-06T04:28:27;34.38;33.46;35.75;;
64996;Laerm;51545;51.568;6.998;2024-01-06T04:30:53;34.30;33.48;37.03;;
64996;Laerm;51545;51.568;6.998;2024-01-06T04:33:19;34.38;33.28;37.52;;
64996;Laerm;51545;51.568;6.998;2024-01-06T04:35:45;34.52;33.56;36.79;;
64996;Laerm;51545;51.568;6.998;2024-01-06T04:38:11;34.63;33.50;37.10;;
64996;Laerm;51545;51.568;6.998;2024-01-06T04:40:37;34.55;33.45;36.31;;
64996;Laerm;51545;51.568;6.998;2024-01-06T04:43:03;34.46;33.38;36.65;;
64996;Laerm;51545;51.568;6.998;2024-01-06T04:45:29;34.50;33.51;36.11;;
64996;Laerm;51545;51.568;6.998;2024-01-06T04:47:55;34.48;33.48;36.54;;
64996;Laerm;51545;51.568;6.998;2024-01-06T04:50:21;34.42;33.40;36.36;;
64996;Laerm;51545;51.568;6.998;2024-01-06T04:52:47;34.28;33.17;35.48;;
64996;Laerm;51545;51.568;6.998;2024-01-06T04:55:13;34.27;33.28;36.50;;
64996;Laerm;51545;51.568;6.998;2024-01-06T04:57:39;34.37;33.27;36.54;;
64996;Laerm;51545;51.568;6.998;2024-01-06T05:00:05;34.33;33.39;35.53;;
64996;Laerm;51545;51.568;6.998;2024-01-06T05:02:31;34.38;33.22;37.44;;
64996;Laerm;51545;51.568;6.998;2024-01-06T05:04:58;34.19;33.18;36.92;;
64996;Laerm;51545;51.568;6.998;2024-01-06T05:07:24;34.19;33.20;36.20;;
64996;Laerm;51545;51.568;6.998;2024-01-06T05:09:49;34.34;33.48;36.59;;
64996;Laerm;51545;51.568;6.998;2024-01-06T05:12:15;34.32;33.15;36.42;;
64996;Laerm;51545;51.568;6.998;2024-01-06T05:14:41;34.35;33.26;35.83;;
64996;Laerm;51545;51.568;6.998;2024-01-06T05:17:09;34.29;33.28;36.39;;
64996;Laerm;51545;51.568;6.998;2024-01-06T05:19:35;34.30;33.29;37.28;;
64996;Laerm;51545;51.568;6.998;2024-01-06T05:22:01;34.31;33.38;36.33;;
64996;Laerm;51545;51.568;6.998;2024-01-06T05:24:27;34.31;33.32;37.21;;
64996;Laerm;51545;51.568;6.998;2024-01-06T05:26:53;34.28;33.29;35.94;;
64996;Laerm;51545;51.568;6.998;2024-01-06T05:29:19;34.28;33.33;36.29;;
64996;Laerm;51545;51.568;6.998;2024-01-06T05:31:47;34.41;33.38;36.98;;
64996;Laerm;51545;51.568;6.998;2024-01-06T05:34:15;34.42;33.42;35.95;;
64996;Laerm;51545;51.568;6.998;2024-01-06T05:36:41;34.45;33.40;37.26;;
64996;Laerm;51545;51.568;6.998;2024-01-06T05:39:07;34.47;33.44;37.11;;
64996;Laerm;51545;51.568;6.998;2024-01-06T05:41:38;34.38;33.42;36.18;;
64996;Laerm;51545;51.568;6.998;2024-01-06T05:44:05;34.40;33.41;36.59;;
64996;Laerm;51545;51.568;6.998;2024-01-06T05:46:31;34.39;33.30;36.69;;
64996;Laerm;51545;51.568;6.998;2024-01-06T05:48:57;34.36;33.40;36.17;;
64996;Laerm;51545;51.568;6.998;2024-01-06T05:51:23;34.41;33.34;36.56;;
64996;Laerm;51545;51.568;6.998;2024-01-06T05:53:49;34.33;33.40;36.92;;
64996;Laerm;51545;51.568;6.998;2024-01-06T05:56:25;34.32;33.32;36.87;;
64996;Laerm;51545;51.568;6.998;2024-01-06T05:58:53;34.33;33.33;36.51;;
64996;Laerm;51545;51.568;6.998;2024-01-06T06:01:19;34.31;33.34;36.76;;
64996;Laerm;51545;51.568;6.998;2024-01-06T06:03:50;34.37;33.23;37.09;;
64996;Laerm;51545;51.568;6.998;2024-01-06T06:06:16;34.34;33.33;35.69;;
64996;Laerm;51545;51.568;6.998;2024-01-06T06:08:43;34.51;33.41;36.47;;
64996;Laerm;51545;51.568;6.998;2024-01-06T06:11:12;34.61;33.64;36.55;;
64996;Laerm;51545;51.568;6.998;2024-01-06T06:13:42;34.50;33.39;36.40;;
64996;Laerm;51545;51.568;6.998;2024-01-06T06:16:14;34.70;33.64;36.58;;
64996;Laerm;51545;51.568;6.998;2024-01-06T06:18:40;34.60;33.47;36.75;;
64996;Laerm;51545;51.568;6.998;2024-01-06T06:21:07;34.49;33.45;36.84;;
64996;Laerm;51545;51.568;6.998;2024-01-06T06:23:34;34.43;33.43;36.11;;
64996;Laerm;51545;51.568;6.998;2024-01-06T06:26:04;34.40;33.40;36.61;;
64996;Laerm;51545;51.568;6.998;2024-01-06T06:28:30;34.44;33.37;37.16;;
64996;Laerm;51545;51.568;6.998;2024-01-06T06:30:56;34.51;33.38;36.28;;
64996;Laerm;51545;51.568;6.998;2024-01-06T06:33:22;34.54;33.38;36.90;;
64996;Laerm;51545;51.568;6.998;2024-01-06T06:35:48;34.41;33.21;36.63;;
64996;Laerm;51545;51.568;6.998;2024-01-06T06:38:14;34.52;33.45;36.93;;
64996;Laerm;51545;51.568;6.998;2024-01-06T06:40:40;34.53;33.39;37.07;;
64996;Laerm;51545;51.568;6.998;2024-01-06T06:43:06;34.42;33.37;36.96;;
64996;Laerm;51545;51.568;6.998;2024-01-06T06:45:33;34.36;33.01;37.21;;
64996;Laerm;51545;51.568;6.998;2024-01-06T06:47:59;34.47;33.33;37.59;;
64996;Laerm;51545;51.568;6.998;2024-01-06T06:50:25;34.56;33.43;38.78;;
64996;Laerm;51545;51.568;6.998;2024-01-06T06:52:52;34.39;33.30;37.13;;
64996;Laerm;51545;51.568;6.998;2024-01-06T06:55:18;34.30;33.17;36.80;;
64996;Laerm;51545;51.568;6.998;2024-01-06T06:57:45;34.16;33.07;36.41;;
64996;Laerm;51545;51.568;6.998;2024-01-06T07:00:11;34.15;33.20;36.29;;
64996;Laerm;51545;51.568;6.998;2024-01-06T07:02:38;34.42;33.20;36.77;;
64996;Laerm;51545;51.568;6.998;2024-01-06T07:05:06;34.52;33.38;37.66;;
64996;Laerm;51545;51.568;6.998;2024-01-06T07:07:33;34.32;33.33;36.78;;
64996;Laerm;51545;51.568;6.998;2024-01-06T07:10:05;34.26;33.35;36.74;;
64996;Laerm;51545;51.568;6.998;2024-01-06T07:12:31;34.22;33.19;36.28;;
64996;Laerm;51545;51.568;6.998;2024-01-06T07:15:00;34.21;33.28;36.46;;
64996;Laerm;51545;51.568;6.998;2024-01-06T07:17:26;34.16;33.15;35.93;;
64996;Laerm;51545;51.568;6.998;2024-01-06T07:19:53;34.23;33.23;37.46;;
64996;Laerm;51545;51.568;6.998;2024-01-06T07:22:20;34.24;33.12;36.90;;
64996;Laerm;51545;51.568;6.998;2024-01-06T07:24:46;34.15;33.25;36.60;;
64996;Laerm;51545;51.568;6.998;2024-01-06T07:27:12;34.21;33.14;36.22;;
64996;Laerm;51545;51.568;6.998;2024-01-06T07:29:38;34.26;33.23;37.10;;
64996;Laerm;51545;51.568;6.998;2024-01-06T07:32:06;34.27;33.37;36.59;;
64996;Laerm;51545;51.568;6.998;2024-01-06T07:34:32;34.33;33.33;36.01;;
64996;Laerm;51545;51.568;6.998;2024-01-06T07:36:58;34.36;33.28;36.14;;
64996;Laerm;51545;51.568;6.998;2024-01-06T07:39:24;34.42;33.41;36.83;;
64996;Laerm;51545;51.568;6.998;2024-01-06T07:41:50;34.48;33.25;36.48;;
64996;Laerm;51545;51.568;6.998;2024-01-06T07:44:22;34.35;33.37;36.63;;
64996;Laerm;51545;51.568;6.998;2024-01-06T07:46:53;35.00;33.87;38.09;;
64996;Laerm;51545;51.568;6.998;2024-01-06T07:49:19;34.79;33.56;36.41;;
64996;Laerm;51545;51.568;6.998;2024-01-06T07:51:45;34.39;33.35;35.83;;
64996;Laerm;51545;51.568;6.998;2024-01-06T07:54:11;34.35;33.38;37.14;;
64996;Laerm;51545;51.568;6.998;2024-01-06T07:56:38;34.52;33.34;36.89;;
64996;Laerm;51545;51.568;6.998;2024-01-06T07:59:04;34.45;33.41;35.59;;
64996;Laerm;51545;51.568;6.998;2024-01-06T08:01:31;34.39;33.36;36.51;;
64996;Laerm;51545;51.568;6.998;2024-01-06T08:03:58;34.34;33.41;37.13;;
64996;Laerm;51545;51.568;6.998;2024-01-06T08:06:24;34.45;33.43;36.64;;
64996;Laerm;51545;51.568;6.998;2024-01-06T08:08:51;34.39;33.30;37.24;;
64996;Laerm;51545;51.568;6.998;2024-01-06T08:11:16;34.50;33.39;37.32;;
64996;Laerm;51545;51.568;6.998;2024-01-06T08:13:42;34.64;33.34;39.66;;
64996;Laerm;51545;51.568;6.998;2024-01-06T08:16:09;34.40;33.45;36.94;;
64996;Laerm;51545;51.568;6.998;2024-01-06T08:18:35;34.50;33.49;35.50;;
64996;Laerm;51545;51.568;6.998;2024-01-06T08:21:01;34.69;33.69;36.16;;
64996;Laerm;51545;51.568;6.998;2024-01-06T08:23:27;34.47;33.50;36.10;;
64996;Laerm;51545;51.568;6.998;2024-01-06T08:25:53;34.45;33.47;36.38;;
64996;Laerm;51545;51.568;6.998;2024-01-06T08:28:19;34.42;33.32;36.31;;
64996;Laerm;51545;51.568;6.998;2024-01-06T08:30:49;34.43;33.45;36.70;;
64996;Laerm;51545;51.568;6.998;2024-01-06T08:33:15;34.46;33.42;36.87;;
64996;Laerm;51545;51.568;6.998;2024-01-06T08:35:41;34.60;33.34;36.55;;
64996;Laerm;51545;51.568;6.998;2024-01-06T08:38:07;34.60;33.68;36.02;;
64996;Laerm;51545;51.568;6.998;2024-01-06T08:40:34;34.61;33.53;35.52;;
64996;Laerm;51545;51.568;6.998;2024-01-06T08:43:01;34.56;33.60;36.84;;
64996;Laerm;51545;51.568;6.998;2024-01-06T08:45:27;34.43;33.51;36.33;;
64996;Laerm;51545;51.568;6.998;2024-01-06T08:47:53;34.43;33.54;36.63;;
64996;Laerm;51545;51.568;6.998;2024-01-06T08:50:19;34.36;33.44;37.02;;
64996;Laerm;51545;51.568;6.998;2024-01-06T08:52:45;34.41;33.44;35.67;;
64996;Laerm;51545;51.568;6.998;2024-01-06T08:55:11;34.43;33.29;36.58;;
64996;Laerm;51545;51.568;6.998;2024-01-06T08:57:37;34.61;33.52;36.92;;
64996;Laerm;51545;51.568;6.998;2024-01-06T09:00:04;34.68;33.63;37.18;;
64996;Laerm;51545;51.568;6.998;2024-01-06T09:02:31;34.64;33.66;36.14;;
64996;Laerm;51545;51.568;6.998;2024-01-06T09:04:57;34.74;33.69;37.83;;
64996;Laerm;51545;51.568;6.998;2024-01-06T09:07:23;34.66;33.49;36.79;;
64996;Laerm;51545;51.568;6.998;2024-01-06T09:09:48;34.64;33.70;36.73;;
64996;Laerm;51545;51.568;6.998;2024-01-06T09:12:14;34.53;33.51;37.52;;
64996;Laerm;51545;51.568;6.998;2024-01-06T09:14:40;34.49;33.15;35.48;;
64996;Laerm;51545;51.568;6.998;2024-01-06T09:17:06;34.57;33.67;37.25;;
64996;Laerm;51545;51.568;6.998;2024-01-06T09:19:33;34.72;33.61;37.66;;
64996;Laerm;51545;51.568;6.998;2024-01-06T09:22:00;34.54;33.52;35.40;;
64996;Laerm;51545;51.568;6.998;2024-01-06T09:24:26;35.01;33.52;41.01;;
64996;Laerm;51545;51.568;6.998;2024-01-06T09:26:52;34.60;33.51;37.14;;
64996;Laerm;51545;51.568;6.998;2024-01-06T09:29:18;34.74;33.41;35.99;;
64996;Laerm;51545;51.568;6.998;2024-01-06T09:31:43;34.71;33.76;35.68;;
64996;Laerm;51545;51.568;6.998;2024-01-06T09:34:10;34.60;33.46;36.11;;
64996;Laerm;51545;51.568;6.998;2024-01-06T09:36:36;34.66;33.60;37.47;;
64996;Laerm;51545;51.568;6.998;2024-01-06T09:39:02;34.59;33.48;37.39;;
64996;Laerm;51545;51.568;6.998;2024-01-06T09:41:28;34.48;33.53;35.89;;
64996;Laerm;51545;51.568;6.998;2024-01-06T09:43:54;34.43;33.42;37.86;;
64996;Laerm;51545;51.568;6.998;2024-01-06T09:46:27;34.53;33.47;36.32;;
64996;Laerm;51545;51.568;6.998;2024-01-06T09:48:58;34.33;33.30;37.08;;
64996;Laerm;51545;51.568;6.998;2024-01-06T09:51:26;34.29;33.48;36.73;;
64996;Laerm;51545;51.568;6.998;2024-01-06T09:53:59;34.30;33.21;37.04;;
64996;Laerm;51545;51.568;6.998;2024-01-06T09:56:27;34.21;33.08;36.04;;
64996;Laerm;51545;51.568;6.998;2024-01-06T09:58:54;34.22;33.38;36.41;;
64996;Laerm;51545;51.568;6.998;2024-01-06T10:01:20;34.22;33.23;36.81;;
64996;Laerm;51545;51.568;6.998;2024-01-06T10:03:47;34.24;33.34;36.76;;
64996;Laerm;51545;51.568;6.998;2024-01-06T10:06:17;34.27;33.23;36.26;;
64996;Laerm;51545;51.568;6.998;2024-01-06T10:08:50;34.32;33.33;36.79;;
64996;Laerm;51545;51.568;6.998;2024-01-06T10:11:16;34.34;33.23;36.10;;
64996;Laerm;51545;51.568;6.998;2024-01-06T10:13:42;34.39;33.43;35.85;;
64996;Laerm;51545;51.568;6.998;2024-01-06T10:16:09;34.41;33.27;36.82;;
64996;Laerm;51545;51.568;6.998;2024-01-06T10:18:35;34.45;33.57;35.84;;
64996;Laerm;51545;51.568;6.998;2024-01-06T10:21:05;34.44;33.36;36.99;;
64996;Laerm;51545;51.568;6.998;2024-01-06T10:23:32;34.56;33.42;35.55;;
64996;Laerm;51545;51.568;6.998;2024-01-06T10:25:59;34.34;33.44;36.02;;
64996;Laerm;51545;51.568;6.998;2024-01-06T10:28:25;34.37;33.33;37.75;;
64996;Laerm;51545;51.568;6.998;2024-01-06T10:30:52;34.27;33.28;36.70;;
64996;Laerm;51545;51.568;6.998;2024-01-06T10:33:20;34.28;33.26;36.30;;
64996;Laerm;51545;51.568;6.998;2024-01-06T10:35:47;34.30;33.24;36.22;;
64996;Laerm;51545;51.568;6.998;2024-01-06T10:38:13;34.54;33.52;36.05;;
64996;Laerm;51545;51.568;6.998;2024-01-06T10:43:25;34.20;33.21;36.65;;
64996;Laerm;51545;51.568;6.998;2024-01-06T10:45:57;34.19;33.02;36.68;;
64996;Laerm;51545;51.568;6.998;2024-01-06T10:48:25;34.19;33.17;35.70;;
64996;Laerm;51545;51.568;6.998;2024-01-06T10:50:53;34.13;33.21;35.10;;
64996;Laerm;51545;51.568;6.998;2024-01-06T10:53:22;34.12;33.08;36.49;;
64996;Laerm;51545;51.568;6.998;2024-01-06T10:55:51;34.24;33.37;36.29;;
64996;Laerm;51545;51.568;6.998;2024-01-06T10:58:18;34.32;33.36;36.32;;
64996;Laerm;51545;51.568;6.998;2024-01-06T11:00:46;34.32;33.40;35.68;;
64996;Laerm;51545;51.568;6.998;2024-01-06T11:03:13;34.29;33.32;36.61;;
64996;Laerm;51545;51.568;6.998;2024-01-06T11:05:41;34.32;33.26;36.80;;
64996;Laerm;51545;51.568;6.998;2024-01-06T11:08:10;34.37;33.28;37.28;;
64996;Laerm;51545;51.568;6.998;2024-01-06T11:10:37;34.44;33.43;35.56;;
64996;Laerm;51545;51.568;6.998;2024-01-06T11:13:12;34.40;33.48;35.35;;
64996;Laerm;51545;51.568;6.998;2024-01-06T11:15:40;34.27;33.35;35.59;;
64996;Laerm;51545;51.568;6.998;2024-01-06T11:18:06;34.24;33.34;36.16;;
64996;Laerm;51545;51.568;6.998;2024-01-06T11:20:32;34.31;33.42;35.98;;
64996;Laerm;51545;51.568;6.998;2024-01-06T11:23:18;34.43;33.40;36.87;;
64996;Laerm;51545;51.568;6.998;2024-01-06T11:25:47;34.31;33.33;35.88;;
64996;Laerm;51545;51.568;6.998;2024-01-06T11:28:13;34.34;33.22;37.56;;
64996;Laerm;51545;51.568;6.998;2024-01-06T11:30:42;34.29;33.36;36.46;;
64996;Laerm;51545;51.568;6.998;2024-01-06T11:33:08;34.16;33.16;36.39;;
64996;Laerm;51545;51.568;6.998;2024-01-06T11:35:37;34.13;33.09;36.65;;
64996;Laerm;51545;51.568;6.998;2024-01-06T11:38:06;34.12;33.21;36.60;;
64996;Laerm;51545;51.568;6.998;2024-01-06T11:40:34;34.09;33.19;35.74;;
64996;Laerm;51545;51.568;6.998;2024-01-06T11:45:32;34.17;33.19;35.21;;
64996;Laerm;51545;51.568;6.998;2024-01-06T11:48:01;34.14;32.91;36.64;;
64996;Laerm;51545;51.568;6.998;2024-01-06T11:50:33;34.08;33.14;36.73;;
64996;Laerm;51545;51.568;6.998;2024-01-06T11:53:02;34.13;32.98;36.92;;
64996;Laerm;51545;51.568;6.998;2024-01-06T11:55:31;34.12;33.06;36.53;;
64996;Laerm;51545;51.568;6.998;2024-01-06T11:58:01;34.01;32.78;36.45;;
64996;Laerm;51545;51.568;6.998;2024-01-06T12:00:29;34.04;33.05;36.43;;
64996;Laerm;51545;51.568;6.998;2024-01-06T12:02:59;34.08;33.08;35.89;;
64996;Laerm;51545;51.568;6.998;2024-01-06T12:05:27;34.03;33.01;35.58;;
64996;Laerm;51545;51.568;6.998;2024-01-06T12:07:58;34.01;33.10;36.31;;
64996;Laerm;51545;51.568;6.998;2024-01-06T12:10:26;34.03;33.05;36.54;;
64996;Laerm;51545;51.568;6.998;2024-01-06T12:13:02;33.98;32.92;35.79;;
64996;Laerm;51545;51.568;6.998;2024-01-06T12:15:30;34.03;32.83;35.67;;
64996;Laerm;51545;51.568;6.998;2024-01-06T12:17:57;34.04;32.66;38.26;;
64996;Laerm;51545;51.568;6.998;2024-01-06T12:20:24;33.93;33.08;34.93;;
64996;Laerm;51545;51.568;6.998;2024-01-06T12:22:53;33.93;32.94;36.04;;
64996;Laerm;51545;51.568;6.998;2024-01-06T12:25:24;33.98;33.00;35.85;;
64996;Laerm;51545;51.568;6.998;2024-01-06T12:27:52;34.16;33.13;36.27;;
64996;Laerm;51545;51.568;6.998;2024-01-06T12:30:21;34.02;33.02;36.86;;
64996;Laerm;51545;51.568;6.998;2024-01-06T12:32:49;34.10;33.04;36.57;;
64996;Laerm;51545;51.568;6.998;2024-01-06T12:35:17;34.09;33.09;35.88;;
64996;Laerm;51545;51.568;6.998;2024-01-06T12:37:45;34.17;33.23;36.19;;
64996;Laerm;51545;51.568;6.998;2024-01-06T12:40:13;34.18;33.19;37.01;;
64996;Laerm;51545;51.568;6.998;2024-01-06T12:42:39;34.27;33.26;36.12;;
64996;Laerm;51545;51.568;6.998;2024-01-06T12:45:06;34.40;33.33;35.53;;
64996;Laerm;51545;51.568;6.998;2024-01-06T12:47:33;34.39;33.44;35.34;;
64996;Laerm;51545;51.568;6.998;2024-01-06T12:49:59;34.37;33.27;36.69;;
64996;Laerm;51545;51.568;6.998;2024-01-06T12:52:25;34.37;32.91;36.51;;
64996;Laerm;51545;51.568;6.998;2024-01-06T12:54:52;34.47;33.37;36.13;;
64996;Laerm;51545;51.568;6.998;2024-01-06T12:57:19;34.35;33.26;37.25;;
64996;Laerm;51545;51.568;6.998;2024-01-06T12:59:45;34.35;33.18;36.88;;
64996;Laerm;51545;51.568;6.998;2024-01-06T13:02:11;34.41;33.36;36.69;;
64996;Laerm;51545;51.568;6.998;2024-01-06T13:04:37;34.31;32.99;37.51;;
64996;Laerm;51545;51.568;6.998;2024-01-06T13:07:03;34.65;33.61;36.85;;
64996;Laerm;51545;51.568;6.998;2024-01-06T13:09:29;34.61;33.50;36.42;;
64996;Laerm;51545;51.568;6.998;2024-01-06T13:12:00;34.47;33.48;35.77;;
64996;Laerm;51545;51.568;6.998;2024-01-06T13:14:27;34.43;33.34;37.09;;
64996;Laerm;51545;51.568;6.998;2024-01-06T13:16:53;34.59;33.44;36.43;;
64996;Laerm;51545;51.568;6.998;2024-01-06T13:19:20;34.51;33.36;37.16;;
64996;Laerm;51545;51.568;6.998;2024-01-06T13:21:46;34.46;33.18;36.29;;
64996;Laerm;51545;51.568;6.998;2024-01-06T13:24:12;34.57;33.45;37.26;;
64996;Laerm;51545;51.568;6.998;2024-01-06T13:26:38;34.44;33.33;35.69;;
64996;Laerm;51545;51.568;6.998;2024-01-06T13:29:04;34.51;33.23;36.43;;
64996;Laerm;51545;51.568;6.998;2024-01-06T13:31:31;34.61;33.42;37.15;;
64996;Laerm;51545;51.568;6.998;2024-01-06T13:33:57;34.40;33.41;36.24;;
64996;Laerm;51545;51.568;6.998;2024-01-06T13:36:23;34.39;33.33;36.87;;
64996;Laerm;51545;51.568;6.998;2024-01-06T13:38:49;34.50;33.49;36.10;;
64996;Laerm;51545;51.568;6.998;2024-01-06T13:41:15;34.58;33.34;36.96;;
64996;Laerm;51545;51.568;6.998;2024-01-06T13:43:41;34.51;33.43;35.82;;
64996;Laerm;51545;51.568;6.998;2024-01-06T13:46:07;34.41;33.45;36.89;;